createdAt,value
2022-09-30T00:00:12.409Z,99936.88
2022-09-30T00:02:40.281Z,99943.94
2022-09-30T00:05:08.509Z,99939.63
2022-09-30T00:07:36.293Z,99942.34
2022-09-30T00:10:04.462Z,99942.59
2022-09-30T00:12:32.190Z,99943.97
2022-09-30T00:15:01.497Z,99953.19
2022-09-30T00:17:29.513Z,99959.69
2022-09-30T00:19:57.285Z,99956.97
2022-09-30T00:22:25.066Z,99954.81
2022-09-30T00:24:53.038Z,99953.19
2022-09-30T00:27:22.123Z,99962.41
2022-09-30T00:29:49.890Z,99964.03
2022-09-30T00:32:19.140Z,99963.53
2022-09-30T00:34:46.909Z,99961.34
2022-09-30T00:37:16.675Z,99961.34
2022-09-30T00:39:44.459Z,99964.09
2022-09-30T00:42:14.514Z,99965.19
2022-09-30T00:44:46.788Z,99967.63
2022-09-30T00:47:32.701Z,99971.97
2022-09-30T00:50:04.405Z,99964.41
2022-09-30T00:52:33.448Z,99958.72
2022-09-30T00:55:03.914Z,99968.47
2022-09-30T00:57:31.949Z,99966.31
2022-09-30T00:59:59.797Z,99971.44
2022-09-30T01:02:27.809Z,99975.50
2022-09-30T01:04:57.049Z,99967.91
2022-09-30T01:07:26.361Z,99970.09
2022-09-30T01:09:54.348Z,99968.47
2022-09-30T01:12:23.945Z,99961.97
2022-09-30T01:14:53.523Z,99973.09
2022-09-30T01:17:26.167Z,99973.34
2022-09-30T01:20:10.901Z,99968.47
2022-09-30T01:22:47.262Z,99967.97
2022-09-30T01:25:38.035Z,99966.59
2022-09-30T01:28:29.972Z,99963.06
2022-09-30T01:31:12.340Z,99985.84
2022-09-30T01:33:46.153Z,99978.28
2022-09-30T01:36:21.125Z,99983.16
2022-09-30T01:38:51.394Z,99976.41
2022-09-30T01:41:24.695Z,99979.38
2022-09-30T01:43:58.694Z,99985.59
2022-09-30T01:46:33.925Z,99976.94
2022-09-30T01:49:06.527Z,99977.22
2022-09-30T01:51:38.872Z,99980.47
2022-09-30T01:54:13.872Z,99979.94
2022-09-30T01:56:43.174Z,99982.66
2022-09-30T01:59:14.138Z,99993.19
2022-09-30T02:01:48.076Z,99988.03
2022-09-30T02:04:19.666Z,99991.84
2022-09-30T02:06:50.527Z,99996.72
2022-09-30T02:09:23.074Z,99995.94
2022-09-30T02:11:52.772Z,99993.75
2022-09-30T02:14:24.560Z,99983.75
2022-09-30T02:16:56.569Z,99986.44
2022-09-30T02:19:28.817Z,99994.03
2022-09-30T02:22:00.245Z,99974.81
2022-09-30T02:24:32.014Z,99979.41
2022-09-30T02:27:02.413Z,99981.56
2022-09-30T02:29:32.336Z,99978.31
2022-09-30T02:32:06.060Z,99979.94
2022-09-30T02:34:36.683Z,99984.00
2022-09-30T02:37:06.605Z,99981.56
2022-09-30T02:39:38.712Z,99991.59
2022-09-30T02:42:11.067Z,99994.56
2022-09-30T02:44:40.045Z,99994.00
2022-09-30T02:47:18.081Z,99996.22
2022-09-30T02:49:48.443Z,99994.00
2022-09-30T02:52:22.042Z,100002.16
2022-09-30T02:54:53.598Z,100000.00
2022-09-30T02:57:24.134Z,100003.50
2022-09-30T02:59:53.153Z,99994.84
2022-09-30T03:02:22.468Z,100014.06
2022-09-30T03:04:50.790Z,100010.81
2022-09-30T03:07:19.061Z,100007.56
2022-09-30T03:09:47.011Z,100001.06
2022-09-30T03:12:23.181Z,100001.59
2022-09-30T03:15:00.022Z,100005.94
2022-09-30T03:17:38.081Z,100008.34
2022-09-30T03:20:21.930Z,100013.75
2022-09-30T03:23:03.978Z,100019.44
2022-09-30T03:25:36.247Z,100018.91
2022-09-30T03:28:22.833Z,100010.78
2022-09-30T03:30:56.909Z,100018.06
2022-09-30T03:33:30.880Z,100017.25
2022-09-30T03:36:01.201Z,100018.34
2022-09-30T03:38:36.487Z,100028.91
2022-09-30T03:41:08.084Z,100029.16
2022-09-30T03:43:37.463Z,100029.44
2022-09-30T03:46:11.384Z,100031.06
2022-09-30T03:48:41.326Z,100030.25
2022-09-30T03:51:09.859Z,100023.50
2022-09-30T03:53:41.214Z,100029.19
2022-09-30T03:56:09.167Z,100035.41
2022-09-30T03:58:40.252Z,100043.22
2022-09-30T04:01:09.145Z,100047.03
2022-09-30T04:03:37.015Z,100047.28
2022-09-30T04:06:06.393Z,100050.78
2022-09-30T04:08:34.148Z,100054.28
2022-09-30T04:11:01.918Z,100055.66
2022-09-30T04:13:30.148Z,100050.25
2022-09-30T04:15:58.471Z,100051.34
2022-09-30T04:18:26.338Z,100064.03
2022-09-30T04:20:54.171Z,100067.78
2022-09-30T04:23:27.246Z,100066.44
2022-09-30T04:25:55.192Z,100058.06
2022-09-30T04:28:23.100Z,100068.59
2022-09-30T04:30:51.042Z,100072.38
2022-09-30T04:33:18.830Z,100077.22
2022-09-30T04:35:46.660Z,100073.72
2022-09-30T04:38:14.449Z,100083.75
2022-09-30T04:40:43.597Z,100081.84
2022-09-30T04:43:11.518Z,100079.94
2022-09-30T04:45:44.151Z,100075.63
2022-09-30T04:48:12.216Z,100088.06
2022-09-30T04:50:40.032Z,100081.31
2022-09-30T04:53:07.814Z,100081.06
2022-09-30T04:55:35.945Z,100087.53
2022-09-30T04:58:05.069Z,100074.03
2022-09-30T05:00:33.062Z,100089.22
2022-09-30T05:03:01.084Z,100089.97
2022-09-30T05:05:28.886Z,100094.56
2022-09-30T05:08:00.404Z,100090.22
2022-09-30T05:10:29.945Z,100095.13
2022-09-30T05:12:58.136Z,100101.34
2022-09-30T05:15:27.477Z,100115.69
2022-09-30T05:17:55.261Z,100101.59
2022-09-30T05:20:23.045Z,100098.06
2022-09-30T05:22:54.931Z,100101.03
2022-09-30T05:25:23.392Z,100100.75
2022-09-30T05:27:51.245Z,100098.59
2022-09-30T05:30:18.998Z,100100.22
2022-09-30T05:32:48.171Z,100102.44
2022-09-30T05:35:15.977Z,100118.66
2022-09-30T05:37:43.982Z,100115.19
2022-09-30T05:40:11.834Z,100120.84
2022-09-30T05:42:39.630Z,100119.00
2022-09-30T05:45:07.911Z,100133.59
2022-09-30T05:47:35.688Z,100132.53
2022-09-30T05:50:05.245Z,100138.53
2022-09-30T05:52:33.269Z,100141.81
2022-09-30T05:55:01.561Z,100149.38
2022-09-30T05:57:29.601Z,100148.84
2022-09-30T05:59:57.984Z,100152.09
2022-09-30T06:02:26.000Z,100142.09
2022-09-30T06:04:53.809Z,100145.91
2022-09-30T06:07:22.948Z,100142.94
2022-09-30T06:09:51.455Z,100146.19
2022-09-30T06:12:19.266Z,100148.91
2022-09-30T06:14:47.572Z,100157.88
2022-09-30T06:17:18.506Z,100161.91
2022-09-30T06:19:46.476Z,100165.72
2022-09-30T06:22:14.268Z,100170.88
2022-09-30T06:24:43.397Z,100176.31
2022-09-30T06:27:11.348Z,100161.63
2022-09-30T06:29:39.639Z,100173.28
2022-09-30T06:32:08.025Z,100181.94
2022-09-30T06:34:35.904Z,100177.28
2022-09-30T06:37:04.059Z,100181.84
2022-09-30T06:39:31.844Z,100179.34
2022-09-30T06:42:00.982Z,100187.69
2022-09-30T06:44:45.152Z,100190.44
2022-09-30T06:47:23.266Z,100188.63
2022-09-30T06:49:58.428Z,100194.31
2022-09-30T06:52:27.225Z,100194.97
2022-09-30T06:54:56.586Z,100197.78
2022-09-30T06:57:27.693Z,100194.38
2022-09-30T06:59:55.712Z,100206.78
2022-09-30T07:02:23.528Z,100204.63
2022-09-30T07:04:52.403Z,100199.44
2022-09-30T07:07:25.012Z,100197.06
2022-09-30T07:09:56.343Z,100207.13
2022-09-30T07:12:28.875Z,100206.41
2022-09-30T07:14:56.987Z,100212.66
2022-09-30T07:17:24.825Z,100205.16
2022-09-30T07:19:53.087Z,100202.13
2022-09-30T07:22:35.637Z,100207.38
2022-09-30T07:25:04.732Z,100213.69
2022-09-30T07:27:34.283Z,100208.53
2022-09-30T07:30:09.767Z,100210.66
2022-09-30T07:32:39.677Z,100207.75
2022-09-30T07:35:07.798Z,100199.34
2022-09-30T07:37:36.829Z,100200.94
2022-09-30T07:40:05.374Z,100204.91
2022-09-30T07:42:37.493Z,100210.38
2022-09-30T07:45:06.181Z,100210.91
2022-09-30T07:47:34.006Z,100213.22
2022-09-30T07:50:01.990Z,100206.63
2022-09-30T07:52:29.962Z,100211.53
2022-09-30T07:54:57.908Z,100219.25
2022-09-30T07:57:25.767Z,100219.81
2022-09-30T07:59:55.135Z,100210.03
2022-09-30T08:02:24.560Z,100214.09
2022-09-30T08:04:52.403Z,100212.50
2022-09-30T08:07:21.030Z,100211.69
2022-09-30T08:09:49.053Z,100215.81
2022-09-30T08:12:16.957Z,100224.19
2022-09-30T08:14:45.426Z,100222.56
2022-09-30T08:17:15.063Z,100222.06
2022-09-30T08:19:44.610Z,100209.34
2022-09-30T08:22:13.845Z,100211.72
2022-09-30T08:24:41.684Z,100213.84
2022-09-30T08:27:09.673Z,100216.53
2022-09-30T08:32:26.796Z,100215.69
2022-09-30T08:34:54.567Z,100216.47
2022-09-30T08:37:23.740Z,100211.72
2022-09-30T08:39:51.502Z,100221.06
2022-09-30T08:42:49.175Z,100212.84
2022-09-30T08:45:20.949Z,100218.22
2022-09-30T08:47:57.223Z,100216.78
2022-09-30T08:50:30.748Z,100212.25
2022-09-30T08:53:00.444Z,100213.34
2022-09-30T08:55:32.488Z,100208.63
2022-09-30T08:58:03.475Z,100218.63
2022-09-30T09:00:31.686Z,100214.06
2022-09-30T09:03:03.106Z,100219.28
2022-09-30T09:05:35.260Z,100223.50
2022-09-30T09:08:08.666Z,100215.03
2022-09-30T09:10:42.085Z,100226.69
2022-09-30T09:13:18.621Z,100224.63
2022-09-30T09:15:51.899Z,100225.63
2022-09-30T09:18:37.502Z,100219.69
2022-09-30T09:21:23.370Z,100219.94
2022-09-30T09:23:52.635Z,100227.09
2022-09-30T09:26:20.603Z,100221.00
2022-09-30T09:28:58.711Z,100220.69
2022-09-30T09:31:27.095Z,100220.75
2022-09-30T09:33:57.703Z,100220.34
2022-09-30T09:36:33.879Z,100223.84
2022-09-30T09:39:08.585Z,100222.06
2022-09-30T09:41:41.223Z,100220.41
2022-09-30T09:44:15.757Z,100220.50
2022-09-30T09:46:46.505Z,100218.41
2022-09-30T09:49:29.929Z,100217.81
2022-09-30T09:52:15.838Z,100224.13
2022-09-30T09:54:46.191Z,100224.56
2022-09-30T09:57:15.948Z,100221.22
2022-09-30T09:59:55.563Z,100232.25
2022-09-30T10:02:24.089Z,100232.25
2022-09-30T10:04:59.866Z,100219.50
2022-09-30T10:07:29.760Z,100221.47
2022-09-30T10:10:09.526Z,100224.88
2022-09-30T10:12:37.451Z,100213.16
2022-09-30T10:15:12.740Z,100211.81
2022-09-30T10:17:40.982Z,100203.91
2022-09-30T10:20:18.654Z,100219.34
2022-09-30T10:22:48.260Z,100218.19
2022-09-30T10:25:22.811Z,100204.44
2022-09-30T10:27:53.163Z,100216.78
2022-09-30T10:30:35.088Z,100202.50
2022-09-30T10:33:04.520Z,100209.06
2022-09-30T10:35:32.346Z,100196.94
2022-09-30T10:38:01.383Z,100208.03
2022-09-30T10:40:31.150Z,100208.28
2022-09-30T10:42:59.377Z,100212.03
2022-09-30T10:45:30.583Z,100207.97
2022-09-30T10:47:59.972Z,100207.69
2022-09-30T10:50:27.924Z,100209.38
2022-09-30T10:52:58.819Z,100205.97
2022-09-30T10:55:29.154Z,100201.50
2022-09-30T10:58:00.642Z,100202.16
2022-09-30T11:00:31.635Z,100194.91
2022-09-30T11:03:01.919Z,100201.06
2022-09-30T11:05:30.918Z,100204.69
2022-09-30T11:08:02.070Z,100204.72
2022-09-30T11:10:34.941Z,100214.00
2022-09-30T11:13:08.314Z,100205.03
2022-09-30T11:15:41.332Z,100210.97
2022-09-30T11:18:18.228Z,100225.19
2022-09-30T11:20:56.731Z,100224.84
2022-09-30T11:23:29.467Z,100231.72
2022-09-30T11:26:02.079Z,100225.22
2022-09-30T11:28:38.138Z,100228.91
2022-09-30T11:31:14.722Z,100220.38
2022-09-30T11:33:50.198Z,100233.25
2022-09-30T11:36:23.509Z,100214.88
2022-09-30T11:39:06.386Z,100207.78
2022-09-30T11:41:36.812Z,100216.38
2022-09-30T11:44:12.366Z,100225.63
2022-09-30T11:46:49.486Z,100218.19
2022-09-30T11:49:28.209Z,100221.88
2022-09-30T11:52:03.947Z,100222.00
2022-09-30T11:54:36.221Z,100216.94
2022-09-30T11:57:07.910Z,100212.44
2022-09-30T11:59:40.286Z,100215.16
2022-09-30T12:02:17.491Z,100203.13
2022-09-30T12:04:46.370Z,100194.88
2022-09-30T12:07:17.073Z,100207.47
2022-09-30T12:09:47.227Z,100201.69
2022-09-30T12:12:16.946Z,100202.59
2022-09-30T12:14:48.123Z,100203.31
2022-09-30T12:17:20.698Z,100199.47
2022-09-30T12:19:50.913Z,100192.88
2022-09-30T12:22:21.121Z,100179.50
2022-09-30T12:24:48.969Z,100194.03
2022-09-30T12:27:19.993Z,100187.03
2022-09-30T12:30:11.515Z,100182.59
2022-09-30T12:32:58.420Z,100183.22
2022-09-30T12:35:34.432Z,100167.75
2022-09-30T12:38:09.490Z,100172.88
2022-09-30T12:40:50.182Z,100161.34
2022-09-30T12:43:42.900Z,100163.63
2022-09-30T12:46:16.767Z,100159.78
2022-09-30T12:48:47.318Z,100154.72
2022-09-30T12:51:22.788Z,100159.34
2022-09-30T12:53:52.601Z,100151.69
2022-09-30T12:56:20.644Z,100157.34
2022-09-30T12:58:51.009Z,100151.13
2022-09-30T13:01:27.535Z,100144.84
2022-09-30T13:04:15.767Z,100159.09
2022-09-30T13:07:02.347Z,100156.72
2022-09-30T13:09:31.545Z,100143.28
2022-09-30T13:12:14.246Z,100139.53
2022-09-30T13:14:43.888Z,100147.84
2022-09-30T13:17:36.268Z,100149.78
2022-09-30T13:20:36.575Z,100140.81
2022-09-30T13:23:04.488Z,100138.19
2022-09-30T13:25:53.870Z,100130.50
2022-09-30T13:28:29.669Z,100129.69
2022-09-30T13:31:12.679Z,100130.81
2022-09-30T13:33:45.830Z,100124.31
2022-09-30T13:36:28.592Z,100125.53
2022-09-30T13:39:15.352Z,100125.25
2022-09-30T13:41:45.111Z,100131.31
2022-09-30T13:44:15.745Z,100129.66
2022-09-30T13:46:47.759Z,100125.84
2022-09-30T13:49:18.687Z,100123.88
2022-09-30T13:51:48.630Z,100132.34
2022-09-30T13:54:23.341Z,100127.78
2022-09-30T13:56:52.363Z,100118.97
2022-09-30T13:59:28.713Z,100114.84
2022-09-30T14:02:06.869Z,100122.63
2022-09-30T14:04:48.249Z,100123.19
2022-09-30T14:07:29.343Z,100109.66
2022-09-30T14:10:09.194Z,100108.44
2022-09-30T14:12:52.150Z,100103.53
2022-09-30T14:15:38.167Z,100100.03
2022-09-30T14:18:20.922Z,100101.75
2022-09-30T14:20:59.400Z,100102.16
2022-09-30T14:23:29.122Z,100107.28
2022-09-30T14:26:00.829Z,100102.03
2022-09-30T14:28:32.767Z,100098.53
2022-09-30T14:31:13.141Z,100096.13
2022-09-30T14:33:51.976Z,100091.91
2022-09-30T14:36:21.764Z,100091.34
2022-09-30T14:38:53.458Z,100087.41
2022-09-30T14:41:23.257Z,100090.00
2022-09-30T14:43:53.880Z,100088.31
2022-09-30T14:46:27.605Z,100080.97
2022-09-30T14:48:57.135Z,100077.88
2022-09-30T14:51:27.415Z,100075.78
2022-09-30T14:53:57.610Z,100077.53
2022-09-30T14:56:29.431Z,100088.19
2022-09-30T14:58:59.276Z,100080.47
2022-09-30T15:01:30.289Z,100081.06
2022-09-30T15:03:59.890Z,100080.13
2022-09-30T15:06:29.421Z,100079.47
2022-09-30T15:09:03.394Z,100079.72
2022-09-30T15:11:37.214Z,100075.88
2022-09-30T15:14:09.906Z,100065.53
2022-09-30T15:16:45.432Z,100079.41
2022-09-30T15:19:18.169Z,100072.97
2022-09-30T15:21:48.390Z,100069.41
2022-09-30T15:24:18.390Z,100071.13
2022-09-30T15:26:48.996Z,100070.16
2022-09-30T15:29:17.562Z,100070.28
2022-09-30T15:31:47.105Z,100070.66
2022-09-30T15:34:20.423Z,100061.63
2022-09-30T15:36:57.867Z,100069.69
2022-09-30T15:39:49.414Z,100057.81
2022-09-30T15:42:28.934Z,100074.94
2022-09-30T15:44:59.311Z,100070.09
2022-09-30T15:47:28.562Z,100065.50
2022-09-30T15:49:56.600Z,100057.47
2022-09-30T15:52:29.324Z,100057.00
2022-09-30T15:54:59.003Z,100062.31
2022-09-30T15:57:45.521Z,100058.16
2022-09-30T16:00:29.640Z,100058.72
2022-09-30T16:03:06.944Z,100059.28
2022-09-30T16:05:35.091Z,100062.25
2022-09-30T16:08:07.834Z,100066.41
2022-09-30T16:10:37.775Z,100065.59
2022-09-30T16:13:07.021Z,100067.28
2022-09-30T16:15:38.718Z,100072.13
2022-09-30T16:18:07.032Z,100066.72
2022-09-30T16:20:34.924Z,100071.44
2022-09-30T16:23:04.253Z,100063.84
2022-09-30T16:25:33.521Z,100068.63
2022-09-30T16:28:03.424Z,100062.06
2022-09-30T16:30:32.089Z,100068.59
2022-09-30T16:33:03.775Z,100073.88
2022-09-30T16:35:33.229Z,100078.66
2022-09-30T16:38:02.159Z,100078.88
2022-09-30T16:40:31.261Z,100076.03
2022-09-30T16:43:01.355Z,100073.28
2022-09-30T16:45:32.735Z,100077.22
2022-09-30T16:48:01.666Z,100084.16
2022-09-30T16:50:32.190Z,100085.09
2022-09-30T16:53:00.100Z,100073.28
2022-09-30T16:55:28.395Z,100087.88
2022-09-30T16:57:57.953Z,100081.91
2022-09-30T17:00:26.253Z,100079.94
2022-09-30T17:02:55.773Z,100074.16
2022-09-30T17:05:24.877Z,100074.50
2022-09-30T17:07:53.856Z,100074.75
2022-09-30T17:10:23.820Z,100070.44
2022-09-30T17:12:52.104Z,100069.91
2022-09-30T17:15:20.563Z,100075.09
2022-09-30T17:17:48.601Z,100074.63
2022-09-30T17:20:17.862Z,100072.03
2022-09-30T17:22:45.971Z,100074.16
2022-09-30T17:25:14.181Z,100071.56
2022-09-30T17:27:42.206Z,100073.19
2022-09-30T17:30:10.599Z,100071.91
2022-09-30T17:32:38.671Z,100091.00
2022-09-30T17:35:08.296Z,100083.88
2022-09-30T17:37:41.302Z,100079.97
2022-09-30T17:40:41.130Z,100084.34
2022-09-30T17:43:11.186Z,100071.75
2022-09-30T17:45:39.822Z,100078.22
2022-09-30T17:48:08.813Z,100077.44
2022-09-30T17:50:36.979Z,100068.78
2022-09-30T17:53:07.646Z,100064.44
2022-09-30T17:55:36.201Z,100063.28
2022-09-30T17:58:04.187Z,100066.84
2022-09-30T18:00:33.421Z,100067.28
2022-09-30T18:03:02.764Z,100067.09
2022-09-30T18:05:30.740Z,100064.50
2022-09-30T18:07:58.775Z,100060.97
2022-09-30T18:10:28.348Z,100052.91
2022-09-30T18:12:56.454Z,100058.72
2022-09-30T18:15:24.354Z,100060.88
2022-09-30T18:17:52.241Z,100047.00
2022-09-30T18:20:23.346Z,100047.97
2022-09-30T18:22:53.589Z,100045.56
2022-09-30T18:25:22.603Z,100045.25
2022-09-30T18:27:53.257Z,100051.88
2022-09-30T18:30:21.634Z,100048.00
2022-09-30T18:32:50.433Z,100053.97
2022-09-30T18:35:20.103Z,100057.34
2022-09-30T18:37:49.578Z,100056.06
2022-09-30T18:40:18.163Z,100059.59
2022-09-30T18:42:46.263Z,100061.75
2022-09-30T18:45:15.553Z,100057.22
2022-09-30T18:47:44.803Z,100061.59
2022-09-30T18:50:13.745Z,100059.84
2022-09-30T18:52:41.885Z,100052.41
2022-09-30T18:55:10.514Z,100062.88
2022-09-30T18:57:39.008Z,100057.06
2022-09-30T19:00:10.189Z,100059.97
2022-09-30T19:02:40.625Z,100060.44
2022-09-30T19:05:09.064Z,100060.06
2022-09-30T19:07:39.118Z,100057.16
2022-09-30T19:10:07.970Z,100063.91
2022-09-30T19:12:36.423Z,100054.69
2022-09-30T19:15:04.765Z,100050.81
2022-09-30T19:17:32.957Z,100052.06
2022-09-30T19:20:02.396Z,100042.19
2022-09-30T19:22:30.704Z,100041.66
2022-09-30T19:24:58.603Z,100042.66
2022-09-30T19:27:27.053Z,100035.56
2022-09-30T19:29:59.201Z,100037.06
2022-09-30T19:32:28.920Z,100035.31
2022-09-30T19:35:05.346Z,100021.81
2022-09-30T19:37:35.648Z,100021.13
2022-09-30T19:40:16.726Z,100018.09
2022-09-30T19:42:48.982Z,100012.59
2022-09-30T19:45:17.530Z,100009.22
2022-09-30T19:47:45.907Z,100020.34
2022-09-30T19:50:13.878Z,100013.91
2022-09-30T19:52:55.057Z,100025.94
2022-09-30T19:55:25.443Z,100019.34
2022-09-30T19:57:53.387Z,100005.03
2022-09-30T20:00:21.611Z,100011.66
2022-09-30T20:02:50.606Z,100012.75
2022-09-30T20:05:18.849Z,100012.56
2022-09-30T20:07:50.866Z,100016.25
2022-09-30T20:10:19.367Z,100009.16
2022-09-30T20:12:47.321Z,100006.25
2022-09-30T20:15:32.918Z,99998.97
2022-09-30T20:18:01.011Z,100009.91
2022-09-30T20:20:42.133Z,100013.25
2022-09-30T20:23:11.563Z,100010.09
2022-09-30T20:25:39.497Z,100013.47
2022-09-30T20:28:07.850Z,100006.69
2022-09-30T20:30:39.539Z,100008.94
2022-09-30T20:33:08.361Z,100007.81
2022-09-30T20:35:36.570Z,99998.63
2022-09-30T20:38:04.613Z,99993.00
2022-09-30T20:40:35.216Z,99990.97
2022-09-30T20:43:03.997Z,99985.81
2022-09-30T20:45:31.977Z,99990.69
2022-09-30T20:47:59.958Z,99981.69
2022-09-30T20:50:36.772Z,99985.41
2022-09-30T20:53:06.144Z,99972.88
2022-09-30T20:55:36.345Z,99978.50
2022-09-30T20:58:04.917Z,99969.00
2022-09-30T21:00:34.094Z,99966.75
2022-09-30T21:03:02.106Z,99971.41
2022-09-30T21:05:30.968Z,99971.25
2022-09-30T21:07:59.275Z,99970.91
2022-09-30T21:10:28.385Z,99964.31
2022-09-30T21:12:58.676Z,99966.41
2022-09-30T21:15:26.652Z,99960.13
2022-09-30T21:17:54.843Z,99955.63
2022-09-30T21:20:22.806Z,99954.66
2022-09-30T21:22:53.290Z,99944.19
2022-09-30T21:25:21.661Z,99945.63
2022-09-30T21:27:49.900Z,99940.66
2022-09-30T21:30:19.249Z,99935.50
2022-09-30T21:32:47.243Z,99934.66
2022-09-30T21:35:15.281Z,99931.63
2022-09-30T21:37:43.988Z,99929.53
2022-09-30T21:40:12.394Z,99924.22
2022-09-30T21:42:40.282Z,99925.19
2022-09-30T21:45:08.741Z,99930.66
2022-09-30T21:47:38.029Z,99929.38
2022-09-30T21:50:06.746Z,99924.88
2022-09-30T21:52:34.763Z,99919.69
2022-09-30T21:55:02.983Z,99909.22
2022-09-30T21:57:30.858Z,99915.94
2022-09-30T21:59:58.743Z,99911.44
2022-09-30T22:02:26.837Z,99911.28
2022-09-30T22:04:56.271Z,99914.03
2022-09-30T22:07:25.079Z,99910.13
2022-09-30T22:09:53.072Z,99910.94
2022-09-30T22:12:22.139Z,99907.41
2022-09-30T22:14:50.056Z,99905.47
2022-09-30T22:17:18.105Z,99903.53
2022-09-30T22:19:46.036Z,99895.78
2022-09-30T22:22:15.309Z,99903.84
2022-09-30T22:24:43.218Z,99898.38
2022-09-30T22:27:11.283Z,99885.16
2022-09-30T22:29:39.327Z,99884.50
2022-09-30T22:32:07.296Z,99891.75
2022-09-30T22:34:53.012Z,99879.31
2022-09-30T22:37:51.191Z,99875.59
2022-09-30T22:40:19.228Z,99885.09
2022-09-30T22:42:48.905Z,99865.13
2022-09-30T22:45:16.866Z,99867.22
2022-09-30T22:47:45.713Z,99866.09
2022-09-30T22:50:13.838Z,99867.06
2022-09-30T22:52:43.352Z,99870.63
2022-09-30T22:55:11.306Z,99856.59
2022-09-30T22:57:39.271Z,99860.59
2022-09-30T23:00:07.870Z,99856.72
2022-09-30T23:02:35.805Z,99857.38
2022-09-30T23:05:04.274Z,99858.63
2022-09-30T23:07:32.197Z,99838.94
2022-09-30T23:10:01.461Z,99845.47
2022-09-30T23:12:30.082Z,99832.81
2022-09-30T23:14:58.371Z,99829.09
2022-09-30T23:17:26.797Z,99817.47
2022-09-30T23:19:54.847Z,99820.88
2022-09-30T23:22:22.842Z,99810.59
2022-09-30T23:24:50.774Z,99812.31
2022-09-30T23:27:20.059Z,99812.47
2022-09-30T23:29:48.085Z,99797.94
2022-09-30T23:32:43.867Z,99791.19
2022-09-30T23:35:12.983Z,99794.88
2022-09-30T23:37:40.968Z,99777.16
2022-09-30T23:40:09.910Z,99788.91
2022-09-30T23:42:39.161Z,99784.38
2022-09-30T23:45:07.652Z,99785.84
2022-09-30T23:47:35.746Z,99761.81
2022-09-30T23:50:03.787Z,99758.50
2022-09-30T23:52:31.745Z,99772.31
2022-09-30T23:54:59.697Z,99756.00
2022-09-30T23:57:27.640Z,99752.59
2022-09-30T23:59:57.037Z,99738.09
